sensor_id;sensor_type;location;lat;lon;timestamp;temperature;humidity
5621;DHT22;2832;50.864;12.186;2022-08-25T00:00:47;24.00;99.90
5621;DHT22;2832;50.864;12.186;2022-08-25T00:03:26;24.00;99.90
5621;DHT22;2832;50.864;12.186;2022-08-25T00:05:58;24.00;99.90
5621;DHT22;2832;50.864;12.186;2022-08-25T00:08:39;23.90;99.90
5621;DHT22;2832;50.864;12.186;2022-08-25T00:11:18;23.90;99.90
5621;DHT22;2832;50.864;12.186;2022-08-25T00:13:49;23.90;99.90
5621;DHT22;2832;50.864;12.186;2022-08-25T00:16:23;23.90;99.90
5621;DHT22;2832;50.864;12.186;2022-08-25T00:19:09;23.80;99.90
5621;DHT22;2832;50.864;12.186;2022-08-25T00:21:41;23.90;99.90
5621;DHT22;2832;50.864;12.186;2022-08-25T00:24:19;23.80;99.90
5621;DHT22;2832;50.864;12.186;2022-08-25T00:26:55;23.90;99.90
5621;DHT22;2832;50.864;12.186;2022-08-25T00:29:35;23.80;99.90
5621;DHT22;2832;50.864;12.186;2022-08-25T00:32:12;23.90;99.90
5621;DHT22;2832;50.864;12.186;2022-08-25T00:34:42;23.80;99.90
5621;DHT22;2832;50.864;12.186;2022-08-25T00:37:11;23.80;99.90
5621;DHT22;2832;50.864;12.186;2022-08-25T00:39:42;23.80;99.90
5621;DHT22;2832;50.864;12.186;2022-08-25T00:42:18;23.80;99.90
5621;DHT22;2832;50.864;12.186;2022-08-25T00:44:47;23.80;99.90
5621;DHT22;2832;50.864;12.186;2022-08-25T00:47:19;23.70;99.90
5621;DHT22;2832;50.864;12.186;2022-08-25T00:49:52;23.70;99.90
5621;DHT22;2832;50.864;12.186;2022-08-25T00:52:25;23.70;99.90
5621;DHT22;2832;50.864;12.186;2022-08-25T00:55:01;23.60;99.90
5621;DHT22;2832;50.864;12.186;2022-08-25T00:57:33;23.60;99.90
5621;DHT22;2832;50.864;12.186;2022-08-25T01:00:09;23.60;99.90
5621;DHT22;2832;50.864;12.186;2022-08-25T01:02:40;23.60;99.90
5621;DHT22;2832;50.864;12.186;2022-08-25T01:05:16;23.60;99.90
5621;DHT22;2832;50.864;12.186;2022-08-25T01:07:50;23.60;99.90
5621;DHT22;2832;50.864;12.186;2022-08-25T01:10:22;23.60;99.90
5621;DHT22;2832;50.864;12.186;2022-08-25T01:12:54;23.60;99.90
5621;DHT22;2832;50.864;12.186;2022-08-25T01:15:29;23.60;99.90
5621;DHT22;2832;50.864;12.186;2022-08-25T01:17:59;23.60;99.90
5621;DHT22;2832;50.864;12.186;2022-08-25T01:20:51;23.60;99.90
5621;DHT22;2832;50.864;12.186;2022-08-25T01:23:39;23.60;99.90
5621;DHT22;2832;50.864;12.186;2022-08-25T01:26:13;23.60;99.90
5621;DHT22;2832;50.864;12.186;2022-08-25T01:28:45;23.50;99.90
5621;DHT22;2832;50.864;12.186;2022-08-25T01:31:28;23.50;99.90
5621;DHT22;2832;50.864;12.186;2022-08-25T01:33:57;23.50;99.90
5621;DHT22;2832;50.864;12.186;2022-08-25T01:36:34;23.50;99.90
5621;DHT22;2832;50.864;12.186;2022-08-25T01:39:08;23.40;99.90
5621;DHT22;2832;50.864;12.186;2022-08-25T01:42:18;23.50;99.90
5621;DHT22;2832;50.864;12.186;2022-08-25T01:45:08;23.50;99.90
5621;DHT22;2832;50.864;12.186;2022-08-25T01:47:57;23.50;99.90
5621;DHT22;2832;50.864;12.186;2022-08-25T01:50:45;23.40;99.90
5621;DHT22;2832;50.864;12.186;2022-08-25T01:53:23;23.40;99.90
5621;DHT22;2832;50.864;12.186;2022-08-25T01:55:55;23.40;99.90
5621;DHT22;2832;50.864;12.186;2022-08-25T01:58:30;23.40;99.90
5621;DHT22;2832;50.864;12.186;2022-08-25T02:00:59;23.40;99.90
5621;DHT22;2832;50.864;12.186;2022-08-25T02:03:29;23.30;99.90
5621;DHT22;2832;50.864;12.186;2022-08-25T02:05:58;23.30;99.90
5621;DHT22;2832;50.864;12.186;2022-08-25T02:08:28;23.40;99.90
5621;DHT22;2832;50.864;12.186;2022-08-25T02:10:57;23.40;99.90
5621;DHT22;2832;50.864;12.186;2022-08-25T02:13:26;23.30;99.90
5621;DHT22;2832;50.864;12.186;2022-08-25T02:15:55;23.30;99.90
5621;DHT22;2832;50.864;12.186;2022-08-25T02:18:24;23.30;99.90
5621;DHT22;2832;50.864;12.186;2022-08-25T02:20:53;23.30;99.90
5621;DHT22;2832;50.864;12.186;2022-08-25T02:23:21;23.30;99.90
5621;DHT22;2832;50.864;12.186;2022-08-25T02:25:51;23.30;99.90
5621;DHT22;2832;50.864;12.186;2022-08-25T02:28:19;23.20;99.90
5621;DHT22;2832;50.864;12.186;2022-08-25T02:30:49;23.20;99.90
5621;DHT22;2832;50.864;12.186;2022-08-25T02:33:18;23.20;99.90
5621;DHT22;2832;50.864;12.186;2022-08-25T02:35:47;23.20;99.90
5621;DHT22;2832;50.864;12.186;2022-08-25T02:38:15;23.20;99.90
5621;DHT22;2832;50.864;12.186;2022-08-25T02:40:43;23.20;99.90
5621;DHT22;2832;50.864;12.186;2022-08-25T02:43:12;23.10;99.90
5621;DHT22;2832;50.864;12.186;2022-08-25T02:45:40;23.20;99.90
5621;DHT22;2832;50.864;12.186;2022-08-25T02:48:08;23.10;99.90
5621;DHT22;2832;50.864;12.186;2022-08-25T02:50:36;23.10;99.90
5621;DHT22;2832;50.864;12.186;2022-08-25T02:53:05;23.10;99.90
5621;DHT22;2832;50.864;12.186;2022-08-25T02:55:34;23.00;99.90
5621;DHT22;2832;50.864;12.186;2022-08-25T02:58:01;23.00;99.90
5621;DHT22;2832;50.864;12.186;2022-08-25T03:00:31;23.10;99.90
5621;DHT22;2832;50.864;12.186;2022-08-25T03:03:00;23.00;99.90
5621;DHT22;2832;50.864;12.186;2022-08-25T03:05:28;23.10;99.90
5621;DHT22;2832;50.864;12.186;2022-08-25T03:07:56;23.10;99.90
5621;DHT22;2832;50.864;12.186;2022-08-25T03:10:26;23.00;99.90
5621;DHT22;2832;50.864;12.186;2022-08-25T03:12:54;23.00;99.90
5621;DHT22;2832;50.864;12.186;2022-08-25T03:15:22;23.00;99.90
5621;DHT22;2832;50.864;12.186;2022-08-25T03:17:54;23.00;99.90
5621;DHT22;2832;50.864;12.186;2022-08-25T03:20:24;23.00;99.90
5621;DHT22;2832;50.864;12.186;2022-08-25T03:22:53;23.00;99.90
5621;DHT22;2832;50.864;12.186;2022-08-25T03:25:23;23.00;99.90
5621;DHT22;2832;50.864;12.186;2022-08-25T03:28:09;23.00;99.90
5621;DHT22;2832;50.864;12.186;2022-08-25T03:30:39;23.00;99.90
5621;DHT22;2832;50.864;12.186;2022-08-25T03:33:20;22.90;99.90
5621;DHT22;2832;50.864;12.186;2022-08-25T03:35:48;22.70;99.90
5621;DHT22;2832;50.864;12.186;2022-08-25T03:38:20;22.60;99.90
5621;DHT22;2832;50.864;12.186;2022-08-25T03:40:53;22.50;99.90
5621;DHT22;2832;50.864;12.186;2022-08-25T03:43:21;22.50;99.90
5621;DHT22;2832;50.864;12.186;2022-08-25T03:45:49;22.40;99.90
5621;DHT22;2832;50.864;12.186;2022-08-25T03:48:30;22.30;99.90
5621;DHT22;2832;50.864;12.186;2022-08-25T03:51:10;22.30;99.90
5621;DHT22;2832;50.864;12.186;2022-08-25T03:53:39;22.30;99.90
5621;DHT22;2832;50.864;12.186;2022-08-25T03:56:07;22.30;99.90
5621;DHT22;2832;50.864;12.186;2022-08-25T03:58:38;22.20;99.90
5621;DHT22;2832;50.864;12.186;2022-08-25T04:01:08;22.10;99.90
5621;DHT22;2832;50.864;12.186;2022-08-25T04:03:38;22.00;99.90
5621;DHT22;2832;50.864;12.186;2022-08-25T04:06:07;21.90;99.90
5621;DHT22;2832;50.864;12.186;2022-08-25T04:08:38;21.90;99.90
5621;DHT22;2832;50.864;12.186;2022-08-25T04:11:14;21.80;99.90
5621;DHT22;2832;50.864;12.186;2022-08-25T04:13:44;21.80;99.90
5621;DHT22;2832;50.864;12.186;2022-08-25T04:16:36;21.80;99.90
5621;DHT22;2832;50.864;12.186;2022-08-25T04:19:43;21.80;99.90
5621;DHT22;2832;50.864;12.186;2022-08-25T04:22:14;21.80;99.90
5621;DHT22;2832;50.864;12.186;2022-08-25T04:24:44;21.80;99.90
5621;DHT22;2832;50.864;12.186;2022-08-25T04:27:13;21.80;99.90
5621;DHT22;2832;50.864;12.186;2022-08-25T04:29:42;21.80;99.90
5621;DHT22;2832;50.864;12.186;2022-08-25T04:32:22;21.80;99.90
5621;DHT22;2832;50.864;12.186;2022-08-25T04:35:04;21.70;99.90
5621;DHT22;2832;50.864;12.186;2022-08-25T04:37:38;21.70;99.90
5621;DHT22;2832;50.864;12.186;2022-08-25T04:40:09;21.70;99.90
5621;DHT22;2832;50.864;12.186;2022-08-25T04:42:38;21.70;99.90
5621;DHT22;2832;50.864;12.186;2022-08-25T04:45:14;21.70;99.90
5621;DHT22;2832;50.864;12.186;2022-08-25T04:47:47;21.60;99.90
5621;DHT22;2832;50.864;12.186;2022-08-25T04:50:19;21.60;99.90
5621;DHT22;2832;50.864;12.186;2022-08-25T04:52:48;21.60;99.90
5621;DHT22;2832;50.864;12.186;2022-08-25T04:55:16;21.60;99.90
5621;DHT22;2832;50.864;12.186;2022-08-25T04:57:45;21.60;99.90
5621;DHT22;2832;50.864;12.186;2022-08-25T05:00:16;21.60;99.90
5621;DHT22;2832;50.864;12.186;2022-08-25T05:02:45;21.50;99.90
5621;DHT22;2832;50.864;12.186;2022-08-25T05:05:18;21.60;99.90
5621;DHT22;2832;50.864;12.186;2022-08-25T05:07:47;21.60;99.90
5621;DHT22;2832;50.864;12.186;2022-08-25T05:10:15;21.60;99.90
5621;DHT22;2832;50.864;12.186;2022-08-25T05:12:43;21.70;99.90
5621;DHT22;2832;50.864;12.186;2022-08-25T05:15:11;21.70;99.90
5621;DHT22;2832;50.864;12.186;2022-08-25T05:17:56;21.70;99.90
5621;DHT22;2832;50.864;12.186;2022-08-25T05:20:26;21.70;99.90
5621;DHT22;2832;50.864;12.186;2022-08-25T05:22:57;21.60;99.90
5621;DHT22;2832;50.864;12.186;2022-08-25T05:25:25;21.70;99.90
5621;DHT22;2832;50.864;12.186;2022-08-25T05:27:53;21.60;99.90
5621;DHT22;2832;50.864;12.186;2022-08-25T05:30:21;21.60;99.90
5621;DHT22;2832;50.864;12.186;2022-08-25T05:32:49;21.70;99.90
5621;DHT22;2832;50.864;12.186;2022-08-25T05:35:18;21.70;99.90
5621;DHT22;2832;50.864;12.186;2022-08-25T05:37:53;21.70;99.90
5621;DHT22;2832;50.864;12.186;2022-08-25T05:40:27;21.60;99.90
5621;DHT22;2832;50.864;12.186;2022-08-25T05:42:57;21.60;99.90
5621;DHT22;2832;50.864;12.186;2022-08-25T05:45:29;21.50;99.90
5621;DHT22;2832;50.864;12.186;2022-08-25T05:48:02;21.50;99.90
5621;DHT22;2832;50.864;12.186;2022-08-25T05:50:30;21.50;99.90
5621;DHT22;2832;50.864;12.186;2022-08-25T05:53:03;21.50;99.90
5621;DHT22;2832;50.864;12.186;2022-08-25T05:55:32;21.50;99.90
5621;DHT22;2832;50.864;12.186;2022-08-25T05:58:01;21.50;99.90
5621;DHT22;2832;50.864;12.186;2022-08-25T06:00:30;21.60;99.90
5621;DHT22;2832;50.864;12.186;2022-08-25T06:03:00;21.60;99.90
5621;DHT22;2832;50.864;12.186;2022-08-25T06:05:29;21.60;99.90
5621;DHT22;2832;50.864;12.186;2022-08-25T06:07:58;21.60;99.90
5621;DHT22;2832;50.864;12.186;2022-08-25T06:10:28;21.70;99.90
5621;DHT22;2832;50.864;12.186;2022-08-25T06:12:57;21.70;99.90
5621;DHT22;2832;50.864;12.186;2022-08-25T06:15:25;21.70;99.90
5621;DHT22;2832;50.864;12.186;2022-08-25T06:17:53;21.70;99.90
5621;DHT22;2832;50.864;12.186;2022-08-25T06:20:33;21.70;99.90
5621;DHT22;2832;50.864;12.186;2022-08-25T06:23:01;21.70;99.90
5621;DHT22;2832;50.864;12.186;2022-08-25T06:25:31;21.70;99.90
5621;DHT22;2832;50.864;12.186;2022-08-25T06:28:00;21.70;99.90
5621;DHT22;2832;50.864;12.186;2022-08-25T06:30:28;21.80;99.90
5621;DHT22;2832;50.864;12.186;2022-08-25T06:32:56;21.80;99.90
5621;DHT22;2832;50.864;12.186;2022-08-25T06:35:24;21.90;99.90
5621;DHT22;2832;50.864;12.186;2022-08-25T06:37:54;21.90;99.90
5621;DHT22;2832;50.864;12.186;2022-08-25T06:40:23;21.90;99.90
5621;DHT22;2832;50.864;12.186;2022-08-25T06:42:53;22.00;99.90
5621;DHT22;2832;50.864;12.186;2022-08-25T06:45:21;22.00;99.90
5621;DHT22;2832;50.864;12.186;2022-08-25T06:47:49;22.00;99.90
5621;DHT22;2832;50.864;12.186;2022-08-25T06:50:20;22.00;99.90
5621;DHT22;2832;50.864;12.186;2022-08-25T06:52:48;22.00;99.90
5621;DHT22;2832;50.864;12.186;2022-08-25T06:55:18;22.10;99.90
5621;DHT22;2832;50.864;12.186;2022-08-25T06:57:47;22.10;99.90
5621;DHT22;2832;50.864;12.186;2022-08-25T07:00:17;22.10;99.90
5621;DHT22;2832;50.864;12.186;2022-08-25T07:02:45;22.10;99.90
5621;DHT22;2832;50.864;12.186;2022-08-25T07:05:13;22.10;99.90
5621;DHT22;2832;50.864;12.186;2022-08-25T07:07:42;22.20;99.90
5621;DHT22;2832;50.864;12.186;2022-08-25T07:10:12;22.20;99.90
5621;DHT22;2832;50.864;12.186;2022-08-25T07:12:40;22.30;99.90
5621;DHT22;2832;50.864;12.186;2022-08-25T07:15:09;22.20;99.90
5621;DHT22;2832;50.864;12.186;2022-08-25T07:17:38;22.30;99.90
5621;DHT22;2832;50.864;12.186;2022-08-25T07:20:07;22.30;99.90
5621;DHT22;2832;50.864;12.186;2022-08-25T07:22:36;22.30;99.90
5621;DHT22;2832;50.864;12.186;2022-08-25T07:25:05;22.40;99.90
5621;DHT22;2832;50.864;12.186;2022-08-25T07:27:33;22.40;99.90
5621;DHT22;2832;50.864;12.186;2022-08-25T07:30:01;22.40;99.90
5621;DHT22;2832;50.864;12.186;2022-08-25T07:32:29;22.40;99.90
5621;DHT22;2832;50.864;12.186;2022-08-25T07:34:59;22.40;99.90
5621;DHT22;2832;50.864;12.186;2022-08-25T07:37:46;22.40;99.90
5621;DHT22;2832;50.864;12.186;2022-08-25T07:40:16;22.50;99.90
5621;DHT22;2832;50.864;12.186;2022-08-25T07:42:44;22.50;99.90
5621;DHT22;2832;50.864;12.186;2022-08-25T07:45:13;22.60;99.90
5621;DHT22;2832;50.864;12.186;2022-08-25T07:47:42;22.60;99.90
5621;DHT22;2832;50.864;12.186;2022-08-25T07:50:12;22.60;99.90
5621;DHT22;2832;50.864;12.186;2022-08-25T07:52:44;22.60;99.90
5621;DHT22;2832;50.864;12.186;2022-08-25T07:55:13;22.60;99.90
5621;DHT22;2832;50.864;12.186;2022-08-25T07:57:43;22.60;99.90
5621;DHT22;2832;50.864;12.186;2022-08-25T08:00:14;22.60;99.90
5621;DHT22;2832;50.864;12.186;2022-08-25T08:02:47;22.60;99.90
5621;DHT22;2832;50.864;12.186;2022-08-25T08:05:51;22.60;99.90
5621;DHT22;2832;50.864;12.186;2022-08-25T08:08:30;22.70;99.90
5621;DHT22;2832;50.864;12.186;2022-08-25T08:11:03;22.70;99.90
5621;DHT22;2832;50.864;12.186;2022-08-25T08:13:33;22.80;99.90
5621;DHT22;2832;50.864;12.186;2022-08-25T08:16:02;22.80;99.90
5621;DHT22;2832;50.864;12.186;2022-08-25T08:18:35;22.90;99.90
5621;DHT22;2832;50.864;12.186;2022-08-25T08:21:10;22.90;99.90
5621;DHT22;2832;50.864;12.186;2022-08-25T08:23:39;22.90;99.90
5621;DHT22;2832;50.864;12.186;2022-08-25T08:26:07;23.00;99.90
5621;DHT22;2832;50.864;12.186;2022-08-25T08:28:38;22.90;99.90
5621;DHT22;2832;50.864;12.186;2022-08-25T08:31:07;22.90;99.90
5621;DHT22;2832;50.864;12.186;2022-08-25T08:33:37;22.90;99.90
5621;DHT22;2832;50.864;12.186;2022-08-25T08:36:10;23.00;99.90
5621;DHT22;2832;50.864;12.186;2022-08-25T08:38:51;22.90;99.90
5621;DHT22;2832;50.864;12.186;2022-08-25T08:41:46;22.90;99.90
5621;DHT22;2832;50.864;12.186;2022-08-25T08:44:47;23.00;99.90
5621;DHT22;2832;50.864;12.186;2022-08-25T08:47:26;22.90;99.90
5621;DHT22;2832;50.864;12.186;2022-08-25T08:50:03;23.10;99.90
5621;DHT22;2832;50.864;12.186;2022-08-25T08:52:39;23.10;99.90
5621;DHT22;2832;50.864;12.186;2022-08-25T08:55:14;22.90;99.90
5621;DHT22;2832;50.864;12.186;2022-08-25T08:57:49;22.80;99.90
5621;DHT22;2832;50.864;12.186;2022-08-25T09:00:18;22.80;99.90
5621;DHT22;2832;50.864;12.186;2022-08-25T09:02:52;22.90;99.90
5621;DHT22;2832;50.864;12.186;2022-08-25T09:05:29;22.90;99.90
5621;DHT22;2832;50.864;12.186;2022-08-25T09:08:04;22.80;99.90
5621;DHT22;2832;50.864;12.186;2022-08-25T09:10:41;22.90;99.90
5621;DHT22;2832;50.864;12.186;2022-08-25T09:13:18;22.90;99.90
5621;DHT22;2832;50.864;12.186;2022-08-25T09:15:55;23.00;99.90
5621;DHT22;2832;50.864;12.186;2022-08-25T09:18:50;23.00;99.90
5621;DHT22;2832;50.864;12.186;2022-08-25T09:21:27;23.00;99.90
5621;DHT22;2832;50.864;12.186;2022-08-25T09:24:12;23.00;99.90
5621;DHT22;2832;50.864;12.186;2022-08-25T09:26:50;23.10;99.90
5621;DHT22;2832;50.864;12.186;2022-08-25T09:29:24;23.00;99.90
5621;DHT22;2832;50.864;12.186;2022-08-25T09:31:57;23.10;99.90
5621;DHT22;2832;50.864;12.186;2022-08-25T09:34:30;23.10;99.90
5621;DHT22;2832;50.864;12.186;2022-08-25T09:36:59;23.30;99.90
5621;DHT22;2832;50.864;12.186;2022-08-25T09:39:29;23.50;99.90
5621;DHT22;2832;50.864;12.186;2022-08-25T09:41:58;23.50;99.90
5621;DHT22;2832;50.864;12.186;2022-08-25T09:44:32;23.50;99.90
5621;DHT22;2832;50.864;12.186;2022-08-25T09:47:03;23.50;99.90
5621;DHT22;2832;50.864;12.186;2022-08-25T09:49:37;23.60;99.90
5621;DHT22;2832;50.864;12.186;2022-08-25T09:52:30;23.70;99.90
5621;DHT22;2832;50.864;12.186;2022-08-25T09:55:22;23.80;99.90
5621;DHT22;2832;50.864;12.186;2022-08-25T09:57:53;23.80;99.90
5621;DHT22;2832;50.864;12.186;2022-08-25T10:00:24;23.80;99.90
5621;DHT22;2832;50.864;12.186;2022-08-25T10:03:11;23.80;99.90
5621;DHT22;2832;50.864;12.186;2022-08-25T10:05:58;23.90;99.90
5621;DHT22;2832;50.864;12.186;2022-08-25T10:08:32;24.20;99.90
5621;DHT22;2832;50.864;12.186;2022-08-25T10:11:10;24.10;99.90
5621;DHT22;2832;50.864;12.186;2022-08-25T10:13:42;24.10;99.90
5621;DHT22;2832;50.864;12.186;2022-08-25T10:16:12;24.10;99.90
5621;DHT22;2832;50.864;12.186;2022-08-25T10:19:00;24.00;99.90
5621;DHT22;2832;50.864;12.186;2022-08-25T10:21:30;24.10;99.90
5621;DHT22;2832;50.864;12.186;2022-08-25T10:23:58;24.10;99.90
5621;DHT22;2832;50.864;12.186;2022-08-25T10:26:36;24.20;99.90
5621;DHT22;2832;50.864;12.186;2022-08-25T10:29:15;24.30;99.90
5621;DHT22;2832;50.864;12.186;2022-08-25T10:31:54;24.30;99.90
5621;DHT22;2832;50.864;12.186;2022-08-25T10:34:33;24.30;99.90
5621;DHT22;2832;50.864;12.186;2022-08-25T10:37:13;24.30;99.90
5621;DHT22;2832;50.864;12.186;2022-08-25T10:39:44;24.30;99.90
5621;DHT22;2832;50.864;12.186;2022-08-25T10:42:29;24.30;99.90
5621;DHT22;2832;50.864;12.186;2022-08-25T10:45:10;24.40;99.90
5621;DHT22;2832;50.864;12.186;2022-08-25T10:48:22;24.70;99.90
5621;DHT22;2832;50.864;12.186;2022-08-25T10:50:55;24.70;99.90
5621;DHT22;2832;50.864;12.186;2022-08-25T10:53:30;24.70;99.90
5621;DHT22;2832;50.864;12.186;2022-08-25T10:56:09;24.70;99.90
5621;DHT22;2832;50.864;12.186;2022-08-25T11:01:46;24.90;99.90
5621;DHT22;2832;50.864;12.186;2022-08-25T11:04:21;25.10;99.90
5621;DHT22;2832;50.864;12.186;2022-08-25T11:06:57;25.20;99.90
5621;DHT22;2832;50.864;12.186;2022-08-25T11:09:29;25.20;99.90
5621;DHT22;2832;50.864;12.186;2022-08-25T11:12:04;25.10;99.90
5621;DHT22;2832;50.864;12.186;2022-08-25T11:14:39;25.10;99.90
5621;DHT22;2832;50.864;12.186;2022-08-25T11:17:13;25.10;99.90
5621;DHT22;2832;50.864;12.186;2022-08-25T11:19:46;25.10;99.90
5621;DHT22;2832;50.864;12.186;2022-08-25T11:22:18;25.30;99.90
5621;DHT22;2832;50.864;12.186;2022-08-25T11:24:58;25.30;99.90
5621;DHT22;2832;50.864;12.186;2022-08-25T11:27:36;25.20;99.90
5621;DHT22;2832;50.864;12.186;2022-08-25T11:30:10;25.70;99.90
5621;DHT22;2832;50.864;12.186;2022-08-25T11:32:39;25.70;99.90
5621;DHT22;2832;50.864;12.186;2022-08-25T11:35:12;25.60;99.90
5621;DHT22;2832;50.864;12.186;2022-08-25T11:38:09;25.50;99.90
5621;DHT22;2832;50.864;12.186;2022-08-25T11:41:03;25.50;99.90
5621;DHT22;2832;50.864;12.186;2022-08-25T11:43:46;25.60;99.90
5621;DHT22;2832;50.864;12.186;2022-08-25T11:46:42;25.40;99.90
5621;DHT22;2832;50.864;12.186;2022-08-25T11:49:28;25.30;99.90
5621;DHT22;2832;50.864;12.186;2022-08-25T11:51:59;25.40;99.90
5621;DHT22;2832;50.864;12.186;2022-08-25T11:54:29;25.60;99.90
5621;DHT22;2832;50.864;12.186;2022-08-25T11:57:03;25.60;99.90
5621;DHT22;2832;50.864;12.186;2022-08-25T12:00:05;25.70;99.90
5621;DHT22;2832;50.864;12.186;2022-08-25T12:02:39;25.70;99.90
5621;DHT22;2832;50.864;12.186;2022-08-25T12:05:11;25.90;99.90
5621;DHT22;2832;50.864;12.186;2022-08-25T12:07:59;25.90;99.90
5621;DHT22;2832;50.864;12.186;2022-08-25T12:10:58;26.10;99.90
5621;DHT22;2832;50.864;12.186;2022-08-25T12:13:44;26.00;99.90
5621;DHT22;2832;50.864;12.186;2022-08-25T12:16:38;26.00;99.90
5621;DHT22;2832;50.864;12.186;2022-08-25T12:19:45;26.00;99.90
5621;DHT22;2832;50.864;12.186;2022-08-25T12:22:38;26.10;99.90
5621;DHT22;2832;50.864;12.186;2022-08-25T12:25:11;26.10;99.90
5621;DHT22;2832;50.864;12.186;2022-08-25T12:27:56;26.50;99.90
5621;DHT22;2832;50.864;12.186;2022-08-25T12:30:30;26.30;99.90
5621;DHT22;2832;50.864;12.186;2022-08-25T12:33:08;26.30;99.90
5621;DHT22;2832;50.864;12.186;2022-08-25T12:35:54;26.30;99.90
5621;DHT22;2832;50.864;12.186;2022-08-25T12:38:30;26.20;99.90
5621;DHT22;2832;50.864;12.186;2022-08-25T12:41:05;26.20;99.90
5621;DHT22;2832;50.864;12.186;2022-08-25T12:43:36;26.20;99.90
5621;DHT22;2832;50.864;12.186;2022-08-25T12:46:36;26.20;99.90
5621;DHT22;2832;50.864;12.186;2022-08-25T12:49:30;26.40;99.90
5621;DHT22;2832;50.864;12.186;2022-08-25T12:52:05;26.60;99.90
5621;DHT22;2832;50.864;12.186;2022-08-25T12:54:45;26.70;99.90
5621;DHT22;2832;50.864;12.186;2022-08-25T12:57:33;26.60;99.90
5621;DHT22;2832;50.864;12.186;2022-08-25T13:00:12;26.70;99.90
5621;DHT22;2832;50.864;12.186;2022-08-25T13:03:08;26.70;99.90
5621;DHT22;2832;50.864;12.186;2022-08-25T13:06:14;26.60;99.90
5621;DHT22;2832;50.864;12.186;2022-08-25T13:09:04;26.60;99.90
5621;DHT22;2832;50.864;12.186;2022-08-25T13:11:38;26.50;99.90
5621;DHT22;2832;50.864;12.186;2022-08-25T13:14:18;27.00;99.90
5621;DHT22;2832;50.864;12.186;2022-08-25T13:16:56;27.00;99.90
5621;DHT22;2832;50.864;12.186;2022-08-25T13:19:26;26.90;99.90
5621;DHT22;2832;50.864;12.186;2022-08-25T13:21:57;26.90;99.90
5621;DHT22;2832;50.864;12.186;2022-08-25T13:24:32;27.20;99.90
5621;DHT22;2832;50.864;12.186;2022-08-25T13:27:04;27.30;99.90
5621;DHT22;2832;50.864;12.186;2022-08-25T13:29:48;27.20;99.90
5621;DHT22;2832;50.864;12.186;2022-08-25T13:32:26;27.40;99.90
5621;DHT22;2832;50.864;12.186;2022-08-25T13:35:10;27.30;99.90
5621;DHT22;2832;50.864;12.186;2022-08-25T13:37:39;27.20;99.90
5621;DHT22;2832;50.864;12.186;2022-08-25T13:40:15;27.10;99.90
5621;DHT22;2832;50.864;12.186;2022-08-25T13:42:49;27.10;99.90
5621;DHT22;2832;50.864;12.186;2022-08-25T13:45:19;27.00;99.90
5621;DHT22;2832;50.864;12.186;2022-08-25T13:47:48;27.00;99.90
5621;DHT22;2832;50.864;12.186;2022-08-25T13:50:20;27.00;99.90
5621;DHT22;2832;50.864;12.186;2022-08-25T13:52:52;27.00;99.90
5621;DHT22;2832;50.864;12.186;2022-08-25T13:55:25;26.90;99.90
5621;DHT22;2832;50.864;12.186;2022-08-25T13:57:56;27.00;99.90
5621;DHT22;2832;50.864;12.186;2022-08-25T14:00:29;27.00;99.90
5621;DHT22;2832;50.864;12.186;2022-08-25T14:03:00;27.20;99.90
5621;DHT22;2832;50.864;12.186;2022-08-25T14:05:36;27.50;99.90
5621;DHT22;2832;50.864;12.186;2022-08-25T14:08:06;27.30;99.90
5621;DHT22;2832;50.864;12.186;2022-08-25T14:10:42;27.50;99.90
5621;DHT22;2832;50.864;12.186;2022-08-25T14:13:14;27.70;99.40
5621;DHT22;2832;50.864;12.186;2022-08-25T14:15:43;27.50;99.90
5621;DHT22;2832;50.864;12.186;2022-08-25T14:18:17;27.70;99.90
5621;DHT22;2832;50.864;12.186;2022-08-25T14:20:49;27.90;99.60
5621;DHT22;2832;50.864;12.186;2022-08-25T14:23:19;27.70;99.50
5621;DHT22;2832;50.864;12.186;2022-08-25T14:25:55;27.70;98.40
5621;DHT22;2832;50.864;12.186;2022-08-25T14:28:27;27.50;98.50
5621;DHT22;2832;50.864;12.186;2022-08-25T14:30:57;27.40;99.00
5621;DHT22;2832;50.864;12.186;2022-08-25T14:33:29;27.40;99.40
5621;DHT22;2832;50.864;12.186;2022-08-25T14:36:02;27.30;99.90
5621;DHT22;2832;50.864;12.186;2022-08-25T14:38:31;27.30;99.90
5621;DHT22;2832;50.864;12.186;2022-08-25T14:41:12;27.30;99.90
5621;DHT22;2832;50.864;12.186;2022-08-25T14:43:41;27.40;99.90
5621;DHT22;2832;50.864;12.186;2022-08-25T14:46:13;27.30;99.90
5621;DHT22;2832;50.864;12.186;2022-08-25T14:48:46;27.40;99.90
5621;DHT22;2832;50.864;12.186;2022-08-25T14:51:16;27.50;99.90
5621;DHT22;2832;50.864;12.186;2022-08-25T14:53:44;27.70;99.80
5621;DHT22;2832;50.864;12.186;2022-08-25T14:56:21;27.60;99.70
5621;DHT22;2832;50.864;12.186;2022-08-25T14:58:49;27.70;99.20
5621;DHT22;2832;50.864;12.186;2022-08-25T15:01:21;27.70;99.50
5621;DHT22;2832;50.864;12.186;2022-08-25T15:04:00;27.70;99.50
5621;DHT22;2832;50.864;12.186;2022-08-25T15:06:40;27.50;99.70
5621;DHT22;2832;50.864;12.186;2022-08-25T15:09:14;27.50;99.90
5621;DHT22;2832;50.864;12.186;2022-08-25T15:11:45;27.60;99.50
5621;DHT22;2832;50.864;12.186;2022-08-25T15:14:15;27.50;99.90
5621;DHT22;2832;50.864;12.186;2022-08-25T15:16:45;27.60;99.40
5621;DHT22;2832;50.864;12.186;2022-08-25T15:19:48;27.60;99.40
5621;DHT22;2832;50.864;12.186;2022-08-25T15:22:26;27.70;99.50
5621;DHT22;2832;50.864;12.186;2022-08-25T15:24:54;27.80;98.40
5621;DHT22;2832;50.864;12.186;2022-08-25T15:27:25;27.90;98.40
5621;DHT22;2832;50.864;12.186;2022-08-25T15:29:53;27.80;98.00
5621;DHT22;2832;50.864;12.186;2022-08-25T15:32:21;27.90;98.20
5621;DHT22;2832;50.864;12.186;2022-08-25T15:34:50;27.70;98.40
5621;DHT22;2832;50.864;12.186;2022-08-25T15:37:18;27.70;98.50
5621;DHT22;2832;50.864;12.186;2022-08-25T15:39:47;27.70;99.00
5621;DHT22;2832;50.864;12.186;2022-08-25T15:42:14;27.80;98.10
5621;DHT22;2832;50.864;12.186;2022-08-25T15:44:46;27.80;98.60
5621;DHT22;2832;50.864;12.186;2022-08-25T15:47:16;27.90;98.50
5621;DHT22;2832;50.864;12.186;2022-08-25T15:49:47;28.00;99.00
5621;DHT22;2832;50.864;12.186;2022-08-25T15:52:15;27.90;98.90
5621;DHT22;2832;50.864;12.186;2022-08-25T15:54:43;27.80;98.90
5621;DHT22;2832;50.864;12.186;2022-08-25T15:57:11;27.80;98.90
5621;DHT22;2832;50.864;12.186;2022-08-25T15:59:42;27.80;98.50
5621;DHT22;2832;50.864;12.186;2022-08-25T16:02:19;27.70;98.90
5621;DHT22;2832;50.864;12.186;2022-08-25T16:04:52;27.70;98.90
5621;DHT22;2832;50.864;12.186;2022-08-25T16:07:21;27.80;98.80
5621;DHT22;2832;50.864;12.186;2022-08-25T16:09:49;27.80;98.90
5621;DHT22;2832;50.864;12.186;2022-08-25T16:12:22;27.70;99.00
5621;DHT22;2832;50.864;12.186;2022-08-25T16:14:55;27.70;99.20
5621;DHT22;2832;50.864;12.186;2022-08-25T16:17:35;27.70;99.10
5621;DHT22;2832;50.864;12.186;2022-08-25T16:20:04;27.70;99.20
5621;DHT22;2832;50.864;12.186;2022-08-25T16:22:33;27.70;99.00
5621;DHT22;2832;50.864;12.186;2022-08-25T16:25:01;27.70;98.90
5621;DHT22;2832;50.864;12.186;2022-08-25T16:27:30;27.70;98.90
5621;DHT22;2832;50.864;12.186;2022-08-25T16:30:01;27.70;98.80
5621;DHT22;2832;50.864;12.186;2022-08-25T16:32:30;27.70;98.90